Main page
METAR-TAF:

METAR-TAF

Airports :

Kuusamo Airport

Kuusamo, Finland

latitude: 65-58N, longitude: 029-11E, elevation: 262 m

Current weather observation

The report was made 25 minutes ago, at 17:50 UTC
Wind 6 kt from the West/Southwest
Temperature -3°C
Humidity 93%
Pressure 980 hPa
Visibility 10 km or more
Overcast at a height of 1000 ft
light snow

METAR: EFKS 061750Z AUTO 24006KT 9999 -SN OVC010 M03/M04 Q0980

Time: 20:15 (18:15 UTC)

Forecast

The report was made 6 hours and 43 minutes ago, at 11:32 UTC
Forecast valid from 06 at 12 UTC to 06 at 14 UTC
Wind 9 kt from the West/Southwest
Visibility 10 km or more
Overcast at a height of 600 ft
Temporary
from 06 at 12 UTC to 06 at 14 UTC
Visibility: 3000 m
Broken clouds at a height of 300 ft
light snow

TAF: EFKS 061132Z 0612/0614 25009KT 9999 OVC006 TEMPO 0612/0614 3000 -SN BKN003

Weather observations and forecasts of more than 4000 airports (METAR and TAF reports).

The available stations are represented by yellow and red dots on the map.

Hover mouse over dot to see the name of the station.

Then click to see weather observations and forecasts.

To change the map : click on the green buttons with a black cross to zoom in, on the green button with a dash to zoom out, or on the green arrows for adjacent maps.


METAR-TAF: